createdAt,value
2022-12-26T00:00:21.487Z,989.51
2022-12-26T00:01:21.412Z,989.59
2022-12-26T00:02:21.478Z,989.54
2022-12-26T00:03:21.521Z,989.44
2022-12-26T00:04:50.839Z,989.55
2022-12-26T00:05:21.514Z,989.45
2022-12-26T00:06:21.429Z,989.48
2022-12-26T00:07:21.404Z,989.38
2022-12-26T00:08:21.420Z,989.42
2022-12-26T00:09:21.404Z,989.43
2022-12-26T00:10:21.672Z,989.38
2022-12-26T00:11:21.412Z,989.44
2022-12-26T00:12:21.409Z,989.42
2022-12-26T00:13:38.332Z,989.42
2022-12-26T00:14:21.435Z,989.35
2022-12-26T00:15:21.450Z,989.35
2022-12-26T00:16:21.548Z,989.32
2022-12-26T00:17:21.424Z,989.27
2022-12-26T00:18:21.404Z,989.25
2022-12-26T00:19:21.435Z,989.21
2022-12-26T00:20:21.453Z,989.22
2022-12-26T00:21:21.443Z,989.22
2022-12-26T00:22:21.429Z,989.19
2022-12-26T00:23:21.436Z,989.29
2022-12-26T00:24:21.443Z,989.34
2022-12-26T00:25:21.502Z,989.22
2022-12-26T00:26:21.423Z,989.23
2022-12-26T00:27:21.420Z,989.23
2022-12-26T00:28:21.441Z,989.24
2022-12-26T00:29:21.414Z,989.39
2022-12-26T00:30:21.459Z,989.25
2022-12-26T00:31:21.510Z,989.29
2022-12-26T00:32:21.468Z,989.35
2022-12-26T00:33:21.462Z,989.46
2022-12-26T00:34:21.435Z,989.42
2022-12-26T00:35:21.487Z,989.44
2022-12-26T00:36:21.460Z,989.42
2022-12-26T00:37:21.432Z,989.42
2022-12-26T00:38:21.453Z,989.40
2022-12-26T00:39:21.473Z,989.41
2022-12-26T00:40:21.460Z,989.38
2022-12-26T00:41:21.503Z,989.40
2022-12-26T00:42:21.461Z,989.38
2022-12-26T00:43:21.455Z,989.38
2022-12-26T00:44:21.495Z,989.41
2022-12-26T00:45:21.436Z,989.32
2022-12-26T00:46:21.513Z,989.29
2022-12-26T00:47:21.518Z,989.27
2022-12-26T00:48:21.462Z,989.43
2022-12-26T00:49:21.522Z,989.38
2022-12-26T00:50:21.462Z,989.37
2022-12-26T00:51:21.499Z,989.44
2022-12-26T00:52:21.478Z,989.48
2022-12-26T00:53:21.479Z,989.48
2022-12-26T00:54:21.476Z,989.44
2022-12-26T00:55:21.440Z,989.38
2022-12-26T00:56:21.486Z,989.33
2022-12-26T00:57:21.445Z,989.36
2022-12-26T00:58:21.487Z,989.37
2022-12-26T00:59:21.476Z,989.39
2022-12-26T01:00:21.470Z,989.42
2022-12-26T01:01:21.608Z,989.37
2022-12-26T01:02:21.624Z,989.42
2022-12-26T01:03:21.566Z,989.35
2022-12-26T01:04:21.465Z,989.43
2022-12-26T01:05:21.484Z,989.47
2022-12-26T01:06:21.516Z,989.46
2022-12-26T01:07:21.509Z,989.41
2022-12-26T01:08:24.563Z,989.51
2022-12-26T01:09:21.489Z,989.50
2022-12-26T01:10:21.462Z,989.41
2022-12-26T01:11:21.466Z,989.45
2022-12-26T01:12:21.506Z,989.43
2022-12-26T01:13:21.564Z,989.36
2022-12-26T01:14:21.513Z,989.39
2022-12-26T01:15:21.595Z,989.35
2022-12-26T01:16:21.516Z,989.45
2022-12-26T01:17:21.482Z,989.44
2022-12-26T01:18:21.491Z,989.58
2022-12-26T01:19:21.516Z,989.56
2022-12-26T01:20:21.520Z,989.49
2022-12-26T01:21:21.525Z,989.42
2022-12-26T01:22:21.503Z,989.39
2022-12-26T01:23:21.515Z,989.36
2022-12-26T01:24:21.535Z,989.39
2022-12-26T01:25:21.501Z,989.36
2022-12-26T01:26:21.481Z,989.38
2022-12-26T01:27:21.484Z,989.44
2022-12-26T01:28:21.482Z,989.43
2022-12-26T01:29:21.517Z,989.56
2022-12-26T01:30:21.515Z,989.57
2022-12-26T01:31:21.648Z,989.52
2022-12-26T01:32:21.512Z,989.56
2022-12-26T01:33:21.491Z,989.53
2022-12-26T01:34:21.564Z,989.59
2022-12-26T01:35:21.581Z,989.51
2022-12-26T01:36:21.518Z,989.57
2022-12-26T01:37:21.497Z,989.61
2022-12-26T01:38:21.585Z,989.64
2022-12-26T01:39:21.548Z,989.70
2022-12-26T01:40:21.511Z,989.71
2022-12-26T01:41:21.525Z,989.71
2022-12-26T01:42:21.492Z,989.76
2022-12-26T01:43:21.517Z,989.86
2022-12-26T01:44:21.539Z,989.84
2022-12-26T01:45:21.540Z,989.88
2022-12-26T01:46:21.584Z,989.81
2022-12-26T01:47:21.507Z,989.80
2022-12-26T01:48:21.517Z,989.80
2022-12-26T01:49:21.563Z,989.81
2022-12-26T01:50:21.544Z,989.82
2022-12-26T01:51:21.504Z,989.78
2022-12-26T01:52:21.527Z,989.76
2022-12-26T01:53:21.524Z,989.88
2022-12-26T01:54:38.487Z,989.84
2022-12-26T01:55:21.530Z,989.91
2022-12-26T01:56:21.512Z,989.89
2022-12-26T01:57:21.547Z,989.91
2022-12-26T01:58:21.524Z,989.90
2022-12-26T01:59:21.539Z,989.90
2022-12-26T02:00:21.560Z,989.92
2022-12-26T02:01:21.589Z,989.92
2022-12-26T02:02:21.718Z,990.00
2022-12-26T02:03:21.547Z,989.97
2022-12-26T02:04:21.552Z,989.97
2022-12-26T02:05:21.569Z,989.96
2022-12-26T02:06:21.523Z,989.88
2022-12-26T02:07:21.574Z,989.89
2022-12-26T02:08:21.571Z,989.95
2022-12-26T02:09:21.535Z,989.86
2022-12-26T02:10:21.549Z,989.92
2022-12-26T02:11:21.548Z,989.96
2022-12-26T02:12:36.437Z,989.96
2022-12-26T02:13:21.594Z,989.92
2022-12-26T02:14:21.531Z,989.93
2022-12-26T02:15:21.530Z,989.83
2022-12-26T02:16:21.591Z,989.92
2022-12-26T02:17:21.569Z,989.92
2022-12-26T02:18:21.529Z,989.96
2022-12-26T02:19:21.546Z,989.95
2022-12-26T02:20:21.561Z,990.00
2022-12-26T02:21:21.537Z,989.93
2022-12-26T02:22:21.578Z,989.93
2022-12-26T02:23:21.574Z,989.94
2022-12-26T02:24:21.575Z,990.01
2022-12-26T02:25:21.589Z,990.02
2022-12-26T02:26:21.538Z,990.03
2022-12-26T02:27:21.669Z,990.08
2022-12-26T02:28:21.571Z,990.00
2022-12-26T02:29:21.611Z,989.98
2022-12-26T02:30:21.590Z,990.00
2022-12-26T02:31:21.638Z,990.03
2022-12-26T02:32:21.586Z,990.06
2022-12-26T02:33:21.567Z,989.98
2022-12-26T02:34:21.580Z,989.98
2022-12-26T02:35:21.556Z,989.97
2022-12-26T02:36:21.551Z,989.98
2022-12-26T02:37:21.585Z,989.93
2022-12-26T02:38:21.595Z,989.88
2022-12-26T02:39:44.933Z,989.88
2022-12-26T02:40:21.593Z,989.83
2022-12-26T02:41:21.582Z,989.86
2022-12-26T02:42:21.563Z,989.80
2022-12-26T02:43:21.645Z,989.82
2022-12-26T02:44:21.583Z,989.90
2022-12-26T02:45:21.581Z,989.91
2022-12-26T02:46:21.612Z,989.92
2022-12-26T02:47:21.592Z,989.90
2022-12-26T02:48:21.623Z,990.00
2022-12-26T02:49:21.595Z,989.99
2022-12-26T02:50:21.587Z,989.99
2022-12-26T02:51:21.605Z,990.03
2022-12-26T02:52:21.630Z,990.03
2022-12-26T02:53:21.612Z,990.04
2022-12-26T02:54:21.605Z,990.03
2022-12-26T02:55:21.620Z,990.03
2022-12-26T02:56:21.589Z,989.98
2022-12-26T02:57:21.604Z,990.00
2022-12-26T02:58:21.604Z,989.89
2022-12-26T02:59:21.586Z,989.89
2022-12-26T03:00:21.612Z,989.85
2022-12-26T03:01:21.653Z,989.82
2022-12-26T03:02:21.760Z,989.84
2022-12-26T03:03:21.647Z,989.95
2022-12-26T03:04:21.622Z,989.89
2022-12-26T03:05:21.601Z,989.94
2022-12-26T03:06:21.596Z,989.90
2022-12-26T03:07:21.600Z,989.87
2022-12-26T03:08:21.594Z,989.88
2022-12-26T03:09:21.652Z,989.87
2022-12-26T03:10:21.672Z,989.86
2022-12-26T03:11:21.649Z,989.99
2022-12-26T03:12:21.624Z,989.93
2022-12-26T03:13:21.660Z,989.84
2022-12-26T03:14:21.623Z,989.84
2022-12-26T03:15:21.698Z,989.86
2022-12-26T03:16:21.714Z,989.86
2022-12-26T03:17:21.633Z,989.90
2022-12-26T03:18:57.788Z,989.87
2022-12-26T03:19:21.641Z,989.90
2022-12-26T03:20:21.682Z,989.85
2022-12-26T03:21:21.639Z,989.86
2022-12-26T03:22:21.681Z,989.93
2022-12-26T03:23:21.653Z,989.88
2022-12-26T03:24:21.651Z,989.94
2022-12-26T03:25:21.653Z,989.85
2022-12-26T03:26:21.633Z,989.87
2022-12-26T03:27:21.651Z,989.77
2022-12-26T03:28:21.647Z,989.76
2022-12-26T03:29:21.661Z,989.69
2022-12-26T03:30:21.679Z,989.75
2022-12-26T03:31:21.751Z,989.67
2022-12-26T03:32:21.697Z,989.60
2022-12-26T03:33:21.668Z,989.64
2022-12-26T03:34:21.646Z,989.67
2022-12-26T03:35:21.718Z,989.73
2022-12-26T03:36:21.676Z,989.66
2022-12-26T03:37:21.643Z,989.65
2022-12-26T03:38:21.676Z,989.62
2022-12-26T03:39:21.679Z,989.59
2022-12-26T03:40:21.708Z,989.68
2022-12-26T03:41:21.663Z,989.60
2022-12-26T03:42:21.667Z,989.53
2022-12-26T03:43:21.660Z,989.57
2022-12-26T03:44:21.675Z,989.68
2022-12-26T03:45:21.675Z,989.55
2022-12-26T03:46:21.714Z,989.55
2022-12-26T03:47:21.700Z,989.55
2022-12-26T03:48:21.704Z,989.57
2022-12-26T03:49:21.675Z,989.40
2022-12-26T03:50:21.681Z,989.37
2022-12-26T03:51:21.660Z,989.34
2022-12-26T03:52:21.678Z,989.28
2022-12-26T03:53:21.687Z,989.30
2022-12-26T03:54:21.670Z,989.38
2022-12-26T03:55:21.677Z,989.40
2022-12-26T03:56:21.701Z,989.50
2022-12-26T03:57:21.696Z,989.55
2022-12-26T03:58:21.676Z,989.59
2022-12-26T03:59:21.745Z,989.58
2022-12-26T04:00:21.694Z,989.65
2022-12-26T04:01:21.838Z,989.66
2022-12-26T04:02:21.795Z,989.65
2022-12-26T04:03:21.683Z,989.70
2022-12-26T04:04:21.687Z,989.71
2022-12-26T04:05:21.693Z,989.61
2022-12-26T04:06:21.717Z,989.68
2022-12-26T04:07:21.716Z,989.70
2022-12-26T04:08:21.687Z,989.73
2022-12-26T04:09:21.689Z,989.71
2022-12-26T04:10:21.706Z,989.67
2022-12-26T04:11:21.706Z,989.74
2022-12-26T04:12:21.688Z,989.72
2022-12-26T04:13:21.704Z,989.75
2022-12-26T04:14:21.741Z,989.77
2022-12-26T04:15:21.709Z,989.86
2022-12-26T04:16:21.802Z,989.79
2022-12-26T04:17:21.710Z,989.85
2022-12-26T04:18:21.726Z,989.83
2022-12-26T04:19:21.713Z,989.83
2022-12-26T04:20:21.724Z,989.85
2022-12-26T04:21:21.686Z,989.89
2022-12-26T04:22:21.692Z,989.90
2022-12-26T04:23:21.739Z,989.89
2022-12-26T04:24:21.720Z,989.95
2022-12-26T04:25:21.705Z,989.85
2022-12-26T04:26:21.728Z,989.95
2022-12-26T04:27:21.698Z,989.97
2022-12-26T04:28:21.709Z,989.95
2022-12-26T04:29:21.721Z,989.92
2022-12-26T04:30:21.710Z,989.92
2022-12-26T04:31:21.788Z,989.98
2022-12-26T04:32:21.708Z,989.99
2022-12-26T04:33:21.765Z,989.97
2022-12-26T04:34:21.744Z,989.92
2022-12-26T04:35:21.732Z,989.99
2022-12-26T04:36:21.703Z,989.89
2022-12-26T04:37:21.722Z,989.93
2022-12-26T04:38:21.709Z,989.92
2022-12-26T04:39:21.716Z,990.03
2022-12-26T04:40:21.772Z,990.04
2022-12-26T04:41:21.790Z,989.97
2022-12-26T04:42:21.736Z,990.00
2022-12-26T04:43:48.649Z,990.01
2022-12-26T04:44:21.738Z,989.98
2022-12-26T04:45:21.748Z,989.97
2022-12-26T04:46:21.817Z,990.00
2022-12-26T04:47:21.736Z,989.99
2022-12-26T04:48:21.739Z,989.94
2022-12-26T04:49:21.744Z,989.97
2022-12-26T04:50:21.739Z,989.92
2022-12-26T04:51:21.749Z,989.88
2022-12-26T04:52:21.733Z,989.87
2022-12-26T04:53:21.744Z,989.85
2022-12-26T04:54:21.743Z,989.86
2022-12-26T04:55:21.760Z,989.93
2022-12-26T04:56:21.762Z,989.84
2022-12-26T04:57:21.762Z,989.90
2022-12-26T04:58:21.758Z,989.89
2022-12-26T04:59:21.739Z,989.90
2022-12-26T05:00:21.772Z,989.86
2022-12-26T05:01:21.822Z,989.83
2022-12-26T05:02:21.870Z,989.82
2022-12-26T05:03:21.790Z,989.79
2022-12-26T05:04:21.758Z,989.82
2022-12-26T05:05:21.763Z,989.78
2022-12-26T05:06:21.763Z,989.76
2022-12-26T05:07:21.811Z,989.71
2022-12-26T05:08:21.764Z,989.77
2022-12-26T05:09:21.748Z,989.92
2022-12-26T05:10:21.757Z,989.87
2022-12-26T05:11:21.783Z,989.84
2022-12-26T05:12:21.766Z,989.85
2022-12-26T05:13:21.768Z,989.89
2022-12-26T05:14:21.763Z,989.87
2022-12-26T05:15:21.791Z,989.93
2022-12-26T05:16:21.809Z,989.87
2022-12-26T05:17:21.786Z,989.96
2022-12-26T05:18:21.765Z,989.96
2022-12-26T05:19:21.772Z,989.99
2022-12-26T05:20:21.754Z,990.07
2022-12-26T05:21:21.768Z,990.00
2022-12-26T05:22:21.767Z,990.10
2022-12-26T05:23:21.783Z,990.05
2022-12-26T05:24:21.772Z,990.01
2022-12-26T05:25:21.783Z,990.00
2022-12-26T05:26:21.777Z,990.05
2022-12-26T05:27:21.781Z,990.03
2022-12-26T05:28:21.780Z,990.04
2022-12-26T05:29:21.790Z,989.93
2022-12-26T05:30:21.773Z,989.91
2022-12-26T05:31:21.806Z,989.80
2022-12-26T05:32:21.802Z,989.81
2022-12-26T05:33:21.803Z,989.93
2022-12-26T05:34:21.786Z,989.87
2022-12-26T05:35:21.767Z,989.95
2022-12-26T05:36:21.801Z,990.00
2022-12-26T05:37:21.805Z,990.07
2022-12-26T05:38:21.806Z,990.03
2022-12-26T05:39:21.790Z,990.05
2022-12-26T05:40:21.792Z,990.09
2022-12-26T05:41:21.808Z,990.08
2022-12-26T05:42:21.812Z,990.05
2022-12-26T05:43:21.876Z,989.99
2022-12-26T05:44:21.802Z,989.93
2022-12-26T05:45:21.838Z,989.93
2022-12-26T05:46:21.852Z,989.97
2022-12-26T05:47:21.802Z,989.96
2022-12-26T05:48:21.832Z,989.95
2022-12-26T05:49:21.791Z,989.94
2022-12-26T05:50:21.839Z,989.96
2022-12-26T05:51:21.821Z,989.97
2022-12-26T05:52:21.788Z,990.02
2022-12-26T05:53:21.827Z,990.03
2022-12-26T05:54:21.796Z,990.06
2022-12-26T05:55:21.821Z,990.07
2022-12-26T05:56:21.825Z,990.15
2022-12-26T05:57:21.819Z,990.07
2022-12-26T05:58:21.827Z,990.03
2022-12-26T05:59:21.809Z,990.11
2022-12-26T06:00:21.799Z,990.10
2022-12-26T06:01:21.853Z,990.09
2022-12-26T06:02:21.941Z,989.98
2022-12-26T06:03:21.963Z,990.01
2022-12-26T06:04:21.820Z,990.04
2022-12-26T06:05:21.845Z,990.08
2022-12-26T06:06:21.813Z,990.06
2022-12-26T06:07:21.810Z,990.04
2022-12-26T06:08:21.824Z,990.17
2022-12-26T06:09:21.857Z,990.20
2022-12-26T06:10:21.811Z,990.23
2022-12-26T06:11:21.851Z,990.21
2022-12-26T06:12:21.834Z,990.23
2022-12-26T06:13:21.811Z,990.20
2022-12-26T06:14:21.851Z,990.21
2022-12-26T06:15:21.819Z,990.16
2022-12-26T06:16:21.935Z,990.23
2022-12-26T06:17:21.843Z,990.20
2022-12-26T06:18:21.825Z,990.19
2022-12-26T06:19:21.853Z,990.15
2022-12-26T06:20:21.842Z,990.19
2022-12-26T06:21:21.856Z,990.23
2022-12-26T06:22:21.871Z,990.15
2022-12-26T06:23:22.116Z,990.27
2022-12-26T06:24:21.869Z,990.23
2022-12-26T06:25:21.848Z,990.15
2022-12-26T06:26:21.870Z,990.14
2022-12-26T06:27:21.850Z,990.22
2022-12-26T06:28:21.887Z,990.15
2022-12-26T06:29:21.849Z,990.19
2022-12-26T06:30:21.851Z,990.25
2022-12-26T06:31:21.952Z,990.18
2022-12-26T06:32:21.863Z,990.25
2022-12-26T06:33:21.868Z,990.17
2022-12-26T06:34:21.881Z,990.13
2022-12-26T06:35:21.920Z,990.18
2022-12-26T06:36:21.917Z,990.13
2022-12-26T06:37:21.949Z,990.17
2022-12-26T06:38:21.937Z,990.20
2022-12-26T06:39:21.951Z,990.23
2022-12-26T06:40:21.955Z,990.17
2022-12-26T06:41:21.988Z,990.20
2022-12-26T06:42:21.983Z,990.21
2022-12-26T06:43:22.006Z,990.14
2022-12-26T06:44:22.094Z,990.15
2022-12-26T06:45:22.026Z,990.24
2022-12-26T06:46:22.168Z,990.16
2022-12-26T06:47:22.048Z,990.25
2022-12-26T06:48:22.083Z,990.29
2022-12-26T06:49:26.204Z,990.18
2022-12-26T06:50:22.145Z,990.17
2022-12-26T06:51:22.195Z,990.11
2022-12-26T06:52:22.140Z,989.99
2022-12-26T06:53:22.163Z,990.05
2022-12-26T06:54:22.162Z,990.04
2022-12-26T06:55:22.144Z,990.07
2022-12-26T06:56:22.180Z,990.07
2022-12-26T06:57:22.155Z,990.12
2022-12-26T06:58:22.151Z,990.08
2022-12-26T06:59:22.176Z,990.07
2022-12-26T07:00:22.148Z,990.09
2022-12-26T07:01:22.331Z,990.09
2022-12-26T07:02:22.255Z,990.17
2022-12-26T07:03:22.163Z,990.22
2022-12-26T07:04:22.217Z,990.29
2022-12-26T07:05:22.196Z,990.29
2022-12-26T07:06:22.381Z,990.34
2022-12-26T07:07:22.183Z,990.41
2022-12-26T07:08:22.202Z,990.34
2022-12-26T07:09:22.172Z,990.34
2022-12-26T07:10:22.199Z,990.35
2022-12-26T07:11:22.200Z,990.35
2022-12-26T07:12:22.178Z,990.33
2022-12-26T07:13:22.186Z,990.30
2022-12-26T07:14:22.191Z,990.29
2022-12-26T07:15:22.186Z,990.31
2022-12-26T07:16:22.229Z,990.24
2022-12-26T07:17:22.212Z,990.24
2022-12-26T07:18:22.197Z,990.22
2022-12-26T07:19:22.177Z,990.36
2022-12-26T07:20:22.196Z,990.32
2022-12-26T07:21:22.204Z,990.37
2022-12-26T07:22:22.217Z,990.38
2022-12-26T07:23:22.193Z,990.38
2022-12-26T07:24:22.176Z,990.40
2022-12-26T07:25:22.236Z,990.33
2022-12-26T07:26:22.201Z,990.45
2022-12-26T07:27:22.223Z,990.46
2022-12-26T07:28:22.203Z,990.47
2022-12-26T07:29:22.222Z,990.48
2022-12-26T07:30:22.202Z,990.55
2022-12-26T07:31:22.216Z,990.51
2022-12-26T07:32:22.229Z,990.63
2022-12-26T07:33:22.242Z,990.63
2022-12-26T07:34:26.415Z,990.62
2022-12-26T07:35:22.195Z,990.60
2022-12-26T07:36:22.229Z,990.63
2022-12-26T07:37:22.217Z,990.55
2022-12-26T07:38:22.215Z,990.56
2022-12-26T07:39:22.237Z,990.53
2022-12-26T07:40:22.246Z,990.61
2022-12-26T07:41:22.227Z,990.75
2022-12-26T07:42:22.236Z,990.76
2022-12-26T07:43:22.234Z,990.83
2022-12-26T07:44:22.251Z,990.85
2022-12-26T07:45:22.264Z,990.83
2022-12-26T07:46:22.355Z,990.87
2022-12-26T07:47:22.245Z,990.94
2022-12-26T07:48:22.228Z,990.95
2022-12-26T07:49:22.247Z,991.01
2022-12-26T07:50:22.226Z,990.97
2022-12-26T07:51:22.243Z,990.93
2022-12-26T07:52:22.215Z,990.97
2022-12-26T07:53:22.222Z,990.98
2022-12-26T07:54:22.287Z,991.04
2022-12-26T07:55:22.235Z,991.10
2022-12-26T07:56:22.257Z,991.02
2022-12-26T07:57:47.472Z,991.03
2022-12-26T07:58:22.258Z,991.05
2022-12-26T07:59:22.273Z,990.92
2022-12-26T08:00:22.247Z,990.90
2022-12-26T08:01:22.409Z,990.80
2022-12-26T08:02:22.524Z,990.69
2022-12-26T08:03:22.325Z,990.72
2022-12-26T08:04:22.398Z,990.70
2022-12-26T08:05:22.261Z,990.81
2022-12-26T08:06:22.260Z,990.73
2022-12-26T08:07:22.250Z,990.79
2022-12-26T08:08:22.262Z,990.71
2022-12-26T08:09:22.303Z,990.73
2022-12-26T08:10:22.262Z,990.72
2022-12-26T08:11:22.325Z,990.71
2022-12-26T08:12:22.297Z,990.72
2022-12-26T08:13:22.294Z,990.74
2022-12-26T08:14:22.271Z,990.74
2022-12-26T08:15:22.331Z,990.77
2022-12-26T08:16:22.349Z,990.72
2022-12-26T08:17:22.343Z,990.78
2022-12-26T08:18:22.279Z,990.78
2022-12-26T08:19:22.272Z,990.78
2022-12-26T08:20:22.288Z,990.71
2022-12-26T08:21:22.315Z,990.70
2022-12-26T08:22:22.348Z,990.68
2022-12-26T08:23:22.275Z,990.66
2022-12-26T08:24:22.292Z,990.57
2022-12-26T08:25:22.392Z,990.47
2022-12-26T08:26:22.315Z,990.51
2022-12-26T08:27:22.321Z,990.52
2022-12-26T08:28:22.267Z,990.66
2022-12-26T08:29:22.268Z,990.67
2022-12-26T08:30:22.269Z,990.72
2022-12-26T08:31:22.385Z,990.72
2022-12-26T08:32:22.272Z,990.79
2022-12-26T08:33:22.271Z,990.81
2022-12-26T08:34:22.301Z,990.93
2022-12-26T08:35:22.289Z,991.08
2022-12-26T08:36:22.281Z,991.06
2022-12-26T08:37:22.281Z,991.02
2022-12-26T08:38:22.335Z,990.97
2022-12-26T08:39:22.302Z,991.09
2022-12-26T08:40:41.384Z,991.07
2022-12-26T08:41:22.306Z,991.00
2022-12-26T08:42:22.299Z,991.16
2022-12-26T08:43:39.191Z,991.13
2022-12-26T08:44:27.357Z,991.15
2022-12-26T08:45:22.310Z,991.28
2022-12-26T08:46:22.402Z,991.31
2022-12-26T08:47:22.287Z,991.34
2022-12-26T08:48:22.322Z,991.32
2022-12-26T08:49:22.290Z,991.34
2022-12-26T08:50:22.317Z,991.32
2022-12-26T08:51:22.332Z,991.36
2022-12-26T08:52:22.298Z,991.37
2022-12-26T08:53:22.289Z,991.50
2022-12-26T08:54:22.325Z,991.53
2022-12-26T08:55:22.287Z,991.51
2022-12-26T08:56:22.317Z,991.57
2022-12-26T08:57:22.295Z,991.62
2022-12-26T08:58:22.301Z,991.61
2022-12-26T08:59:22.296Z,991.57
2022-12-26T09:00:22.296Z,991.59
2022-12-26T09:01:22.424Z,991.63
2022-12-26T09:02:22.719Z,991.54
2022-12-26T09:03:22.377Z,991.54
2022-12-26T09:04:22.285Z,991.59
2022-12-26T09:05:22.324Z,991.65
2022-12-26T09:06:22.292Z,991.53
2022-12-26T09:07:22.315Z,991.56
2022-12-26T09:08:22.377Z,991.43
2022-12-26T09:09:22.314Z,991.39
2022-12-26T09:10:22.304Z,991.59
2022-12-26T09:11:22.362Z,991.59
2022-12-26T09:12:22.344Z,991.62
2022-12-26T09:13:22.432Z,991.75
2022-12-26T09:14:22.303Z,991.81
2022-12-26T09:15:22.356Z,991.87
2022-12-26T09:16:22.366Z,991.99
2022-12-26T09:17:22.426Z,992.08
2022-12-26T09:18:22.339Z,992.11
2022-12-26T09:19:22.359Z,992.03
2022-12-26T09:20:22.349Z,992.06
2022-12-26T09:21:22.361Z,991.99
2022-12-26T09:22:22.333Z,992.08
2022-12-26T09:23:22.337Z,992.02
2022-12-26T09:24:22.346Z,991.89
2022-12-26T09:25:22.378Z,991.78
2022-12-26T09:26:22.320Z,991.90
2022-12-26T09:27:22.316Z,992.00
2022-12-26T09:28:22.356Z,992.01
2022-12-26T09:29:22.366Z,992.08
2022-12-26T09:30:22.343Z,992.00
2022-12-26T09:31:22.357Z,991.91
2022-12-26T09:32:22.359Z,991.80
2022-12-26T09:33:22.368Z,991.67
2022-12-26T09:34:22.345Z,991.66
2022-12-26T09:35:22.350Z,991.59
2022-12-26T09:36:22.338Z,991.80
2022-12-26T09:37:22.338Z,991.80
2022-12-26T09:38:22.335Z,991.76
2022-12-26T09:39:22.390Z,991.76
2022-12-26T09:40:22.372Z,991.68
2022-12-26T09:41:22.343Z,991.65
2022-12-26T09:42:22.375Z,991.72
2022-12-26T09:43:22.350Z,991.63
2022-12-26T09:44:22.419Z,991.59
2022-12-26T09:45:22.362Z,991.52
2022-12-26T09:46:22.394Z,991.64
2022-12-26T09:47:22.379Z,991.81
2022-12-26T09:48:22.374Z,991.88
2022-12-26T09:49:22.394Z,991.87
2022-12-26T09:50:22.361Z,991.87
2022-12-26T09:51:22.368Z,991.85
2022-12-26T09:52:22.330Z,991.94
2022-12-26T09:53:22.352Z,991.99
2022-12-26T09:54:22.371Z,991.88
2022-12-26T09:55:22.384Z,991.87
2022-12-26T09:57:22.362Z,991.98
2022-12-26T09:58:22.376Z,992.01
2022-12-26T09:59:22.405Z,991.91
2022-12-26T10:00:22.401Z,991.90
2022-12-26T10:01:22.447Z,991.89
2022-12-26T10:02:22.570Z,991.99
2022-12-26T10:03:22.381Z,991.92
2022-12-26T10:04:28.565Z,991.97
2022-12-26T10:05:22.591Z,991.95
2022-12-26T10:06:22.381Z,992.00
2022-12-26T10:07:22.375Z,991.97
2022-12-26T10:08:22.367Z,991.92
2022-12-26T10:09:22.384Z,991.84
2022-12-26T10:10:22.376Z,991.78
2022-12-26T10:11:22.372Z,991.82
2022-12-26T10:12:22.427Z,991.67
2022-12-26T10:13:22.373Z,991.68
2022-12-26T10:14:22.433Z,991.77
2022-12-26T10:15:22.499Z,991.88
2022-12-26T10:16:22.410Z,991.74
2022-12-26T10:17:22.390Z,991.73
2022-12-26T10:18:22.397Z,991.71
2022-12-26T10:19:26.088Z,991.77
2022-12-26T10:20:22.416Z,991.85
2022-12-26T10:21:22.379Z,991.88
2022-12-26T10:22:22.420Z,991.81
2022-12-26T10:23:22.457Z,991.78
2022-12-26T10:24:22.396Z,991.85
2022-12-26T10:25:22.459Z,991.90
2022-12-26T10:26:22.393Z,991.95
2022-12-26T10:27:22.413Z,991.96
2022-12-26T10:28:22.409Z,991.91
2022-12-26T10:29:22.397Z,991.88
2022-12-26T10:30:22.439Z,991.89
2022-12-26T10:31:22.562Z,991.90
2022-12-26T10:32:27.709Z,991.81
2022-12-26T10:33:22.395Z,991.87
2022-12-26T10:34:22.404Z,991.87
2022-12-26T10:35:22.410Z,991.83
2022-12-26T10:36:22.426Z,991.75
2022-12-26T10:37:22.404Z,991.76
2022-12-26T10:38:25.809Z,991.75
2022-12-26T10:39:22.410Z,991.74
2022-12-26T10:40:22.453Z,991.83
2022-12-26T10:41:22.479Z,991.84
2022-12-26T10:42:22.410Z,991.83
2022-12-26T10:43:22.400Z,991.87
2022-12-26T10:44:27.397Z,991.89
2022-12-26T10:45:22.426Z,991.88
2022-12-26T10:46:22.451Z,991.88
2022-12-26T10:47:22.416Z,991.91
2022-12-26T10:48:22.442Z,991.87
2022-12-26T10:49:22.627Z,991.87
2022-12-26T10:50:27.139Z,991.80
2022-12-26T10:51:22.443Z,991.80
2022-12-26T10:52:22.446Z,991.85
2022-12-26T10:53:22.432Z,991.82
2022-12-26T10:54:22.435Z,991.93
2022-12-26T10:55:28.205Z,991.86
2022-12-26T10:56:22.454Z,991.95
2022-12-26T10:57:22.440Z,991.84
2022-12-26T10:58:22.438Z,991.93
2022-12-26T10:59:22.549Z,991.93
2022-12-26T11:00:22.466Z,991.90
2022-12-26T11:01:22.530Z,991.95
2022-12-26T11:02:22.600Z,991.97
2022-12-26T11:03:22.633Z,991.84
2022-12-26T11:04:44.618Z,991.88
2022-12-26T11:05:48.335Z,992.00
2022-12-26T11:06:22.492Z,991.90
2022-12-26T11:07:22.476Z,991.93
2022-12-26T11:08:22.472Z,992.00
2022-12-26T11:09:22.483Z,991.97
2022-12-26T11:10:22.515Z,992.06
2022-12-26T11:11:22.502Z,991.90
2022-12-26T11:12:22.521Z,991.95
2022-12-26T11:13:22.528Z,991.96
2022-12-26T11:14:22.530Z,992.03
2022-12-26T11:15:22.486Z,991.99
2022-12-26T11:16:22.526Z,992.07
2022-12-26T11:17:22.477Z,992.03
2022-12-26T11:18:22.497Z,992.17
2022-12-26T11:19:22.484Z,992.07
2022-12-26T11:20:22.535Z,992.10
2022-12-26T11:21:22.506Z,992.11
2022-12-26T11:22:22.493Z,992.03
2022-12-26T11:23:22.510Z,992.05
2022-12-26T11:24:22.469Z,992.02
2022-12-26T11:25:22.533Z,992.11
2022-12-26T11:26:22.526Z,992.02
2022-12-26T11:27:22.491Z,992.10
2022-12-26T11:28:22.511Z,992.09
2022-12-26T11:29:22.502Z,991.99
2022-12-26T11:30:22.537Z,992.10
2022-12-26T11:31:22.532Z,992.09
2022-12-26T11:32:22.483Z,992.10
2022-12-26T11:33:22.491Z,992.04
2022-12-26T11:34:22.503Z,992.05
2022-12-26T11:35:22.506Z,992.04
2022-12-26T11:36:22.518Z,992.02
2022-12-26T11:37:22.506Z,992.00
2022-12-26T11:38:22.518Z,991.99
2022-12-26T11:39:22.496Z,991.96
2022-12-26T11:40:22.521Z,991.97
2022-12-26T11:41:22.500Z,991.94
2022-12-26T11:42:22.516Z,992.05
2022-12-26T11:43:22.534Z,991.99
2022-12-26T11:44:22.531Z,991.95
2022-12-26T11:45:22.548Z,991.94
2022-12-26T11:46:22.545Z,991.95
2022-12-26T11:47:22.531Z,991.89
2022-12-26T11:48:22.540Z,991.90
2022-12-26T11:49:22.555Z,991.94
2022-12-26T11:50:22.568Z,991.97
2022-12-26T11:51:22.565Z,991.92
2022-12-26T11:52:22.556Z,991.91
2022-12-26T11:53:22.516Z,991.88
2022-12-26T11:54:22.512Z,991.88
2022-12-26T11:55:22.533Z,991.81
2022-12-26T11:56:22.525Z,991.76
2022-12-26T11:57:22.529Z,991.70
2022-12-26T11:58:22.531Z,991.80
2022-12-26T11:59:22.518Z,991.91
2022-12-26T12:00:22.530Z,991.89
2022-12-26T12:01:22.613Z,991.86
2022-12-26T12:02:22.587Z,991.80
2022-12-26T12:03:22.550Z,991.84
2022-12-26T12:04:22.555Z,991.83
2022-12-26T12:05:22.531Z,991.78
2022-12-26T12:06:22.523Z,991.86
2022-12-26T12:07:22.557Z,991.83
2022-12-26T12:08:22.534Z,991.86
2022-12-26T12:09:22.521Z,991.82
2022-12-26T12:10:22.560Z,991.80
2022-12-26T12:11:22.587Z,991.91
2022-12-26T12:12:22.553Z,991.77
2022-12-26T12:13:22.568Z,991.80
2022-12-26T12:14:22.595Z,991.71
2022-12-26T12:15:22.539Z,991.64
2022-12-26T12:16:22.608Z,991.83
2022-12-26T12:17:22.534Z,991.73
2022-12-26T12:18:22.598Z,991.71
2022-12-26T12:30:03.204Z,991.68
2022-12-26T12:31:03.142Z,991.74
2022-12-26T12:32:03.245Z,991.76
2022-12-26T12:33:03.169Z,991.76
2022-12-26T12:34:03.159Z,991.75
2022-12-26T12:35:03.204Z,991.77
2022-12-26T12:36:03.186Z,991.79
2022-12-26T12:37:03.193Z,991.81
2022-12-26T12:38:03.194Z,991.83
2022-12-26T12:39:03.202Z,991.79
2022-12-26T12:40:03.172Z,991.72